sensor_id;sensor_type;location;lat;lon;timestamp;pressure;altitude;pressure_sealevel;temperature;humidity
5703;BME280;2876;51.738;10.050;2022-08-03T00:02:22;99363.84;;;19.39;76.53
5703;BME280;2876;51.738;10.050;2022-08-03T00:08:24;99356.63;;;19.23;76.80
5703;BME280;2876;51.738;10.050;2022-08-03T00:14:27;99360.97;;;19.24;76.22
5703;BME280;2876;51.738;10.050;2022-08-03T00:20:29;99355.88;;;19.27;75.63
5703;BME280;2876;51.738;10.050;2022-08-03T00:26:31;99350.06;;;19.46;74.78
5703;BME280;2876;51.738;10.050;2022-08-03T00:32:33;99356.06;;;19.48;74.38
5703;BME280;2876;51.738;10.050;2022-08-03T00:38:35;99348.13;;;19.41;74.73
5703;BME280;2876;51.738;10.050;2022-08-03T00:44:42;99352.44;;;19.37;74.46
5703;BME280;2876;51.738;10.050;2022-08-03T00:50:44;99349.91;;;19.31;74.90
5703;BME280;2876;51.738;10.050;2022-08-03T00:56:46;99351.25;;;19.28;74.69
5703;BME280;2876;51.738;10.050;2022-08-03T01:03:02;99349.56;;;19.22;75.43
5703;BME280;2876;51.738;10.050;2022-08-03T01:09:15;99359.94;;;19.03;76.11
5703;BME280;2876;51.738;10.050;2022-08-03T01:15:28;99350.03;;;18.92;76.40
5703;BME280;2876;51.738;10.050;2022-08-03T01:21:45;99346.66;;;18.85;77.01
5703;BME280;2876;51.738;10.050;2022-08-03T01:34:03;99344.34;;;18.71;77.91
5703;BME280;2876;51.738;10.050;2022-08-03T01:40:15;99347.19;;;19.04;76.55
5703;BME280;2876;51.738;10.050;2022-08-03T01:46:19;99346.91;;;18.83;77.03
5703;BME280;2876;51.738;10.050;2022-08-03T01:52:23;99337.38;;;18.81;76.66
5703;BME280;2876;51.738;10.050;2022-08-03T01:58:26;99341.16;;;18.80;76.62
5703;BME280;2876;51.738;10.050;2022-08-03T02:04:30;99345.72;;;18.74;76.99
5703;BME280;2876;51.738;10.050;2022-08-03T02:10:35;99344.00;;;18.68;77.57
5703;BME280;2876;51.738;10.050;2022-08-03T02:16:38;99351.78;;;18.42;78.62
5703;BME280;2876;51.738;10.050;2022-08-03T02:22:42;99339.38;;;18.30;79.12
5703;BME280;2876;51.738;10.050;2022-08-03T02:28:47;99341.22;;;18.24;79.59
5703;BME280;2876;51.738;10.050;2022-08-03T02:34:54;99344.78;;;18.08;80.24
5703;BME280;2876;51.738;10.050;2022-08-03T02:40:57;99343.50;;;18.15;80.42
5703;BME280;2876;51.738;10.050;2022-08-03T02:47:06;99331.44;;;17.89;81.00
5703;BME280;2876;51.738;10.050;2022-08-03T02:53:11;99330.31;;;17.85;81.73
5703;BME280;2876;51.738;10.050;2022-08-03T02:59:14;99329.94;;;17.98;81.33
5703;BME280;2876;51.738;10.050;2022-08-03T03:05:18;99329.72;;;17.83;81.84
5703;BME280;2876;51.738;10.050;2022-08-03T03:11:40;99323.22;;;17.67;82.28
5703;BME280;2876;51.738;10.050;2022-08-03T03:17:43;99325.72;;;17.57;82.84
5703;BME280;2876;51.738;10.050;2022-08-03T03:23:46;99320.13;;;17.47;83.00
5703;BME280;2876;51.738;10.050;2022-08-03T03:29:49;99332.88;;;17.46;83.36
5703;BME280;2876;51.738;10.050;2022-08-03T03:35:52;99328.28;;;17.47;83.53
5703;BME280;2876;51.738;10.050;2022-08-03T03:41:54;99338.47;;;17.40;83.73
5703;BME280;2876;51.738;10.050;2022-08-03T03:47:59;99334.69;;;17.41;83.66
5703;BME280;2876;51.738;10.050;2022-08-03T03:54:03;99345.34;;;17.31;84.24
5703;BME280;2876;51.738;10.050;2022-08-03T04:00:08;99341.91;;;17.35;84.20
5703;BME280;2876;51.738;10.050;2022-08-03T04:06:11;99341.47;;;17.27;84.33
5703;BME280;2876;51.738;10.050;2022-08-03T04:12:32;99342.94;;;17.34;84.38
5703;BME280;2876;51.738;10.050;2022-08-03T04:18:38;99346.47;;;17.35;84.41
5703;BME280;2876;51.738;10.050;2022-08-03T04:24:55;99337.81;;;17.49;84.05
5703;BME280;2876;51.738;10.050;2022-08-03T04:31:02;99356.16;;;17.59;84.02
5703;BME280;2876;51.738;10.050;2022-08-03T04:37:17;99358.56;;;17.72;83.49
5703;BME280;2876;51.738;10.050;2022-08-03T04:43:23;99364.59;;;17.91;83.15
5703;BME280;2876;51.738;10.050;2022-08-03T04:49:26;99372.75;;;18.08;82.46
5703;BME280;2876;51.738;10.050;2022-08-03T04:55:32;99363.53;;;18.48;81.17
5703;BME280;2876;51.738;10.050;2022-08-03T05:01:35;99372.06;;;18.73;80.78
5703;BME280;2876;51.738;10.050;2022-08-03T05:07:38;99377.69;;;19.33;77.52
5703;BME280;2876;51.738;10.050;2022-08-03T05:13:40;99385.28;;;19.31;78.07
5703;BME280;2876;51.738;10.050;2022-08-03T05:19:42;99388.22;;;19.78;76.12
5703;BME280;2876;51.738;10.050;2022-08-03T05:25:44;99372.66;;;20.06;72.35
5703;BME280;2876;51.738;10.050;2022-08-03T05:31:51;99372.88;;;20.36;70.49
5703;BME280;2876;51.738;10.050;2022-08-03T05:37:53;99369.41;;;20.46;71.60
5703;BME280;2876;51.738;10.050;2022-08-03T05:43:55;99370.41;;;20.72;69.44
5703;BME280;2876;51.738;10.050;2022-08-03T05:49:58;99365.63;;;20.99;67.59
5703;BME280;2876;51.738;10.050;2022-08-03T05:56:00;99366.47;;;21.20;65.98
5703;BME280;2876;51.738;10.050;2022-08-03T06:02:15;99371.47;;;21.34;65.74
5703;BME280;2876;51.738;10.050;2022-08-03T06:08:17;99374.53;;;21.78;65.02
5703;BME280;2876;51.738;10.050;2022-08-03T06:14:19;99368.84;;;21.90;64.75
5703;BME280;2876;51.738;10.050;2022-08-03T06:20:22;99370.75;;;22.20;65.88
5703;BME280;2876;51.738;10.050;2022-08-03T06:26:28;99371.28;;;22.32;63.69
5703;BME280;2876;51.738;10.050;2022-08-03T06:32:30;99376.69;;;22.68;63.93
5703;BME280;2876;51.738;10.050;2022-08-03T06:38:32;99368.09;;;23.05;61.15
5703;BME280;2876;51.738;10.050;2022-08-03T06:44:34;99380.19;;;23.43;60.86
5703;BME280;2876;51.738;10.050;2022-08-03T06:50:39;99385.69;;;23.88;57.14
5703;BME280;2876;51.738;10.050;2022-08-03T06:56:43;99381.56;;;23.90;57.70
5703;BME280;2876;51.738;10.050;2022-08-03T07:02:45;99382.19;;;24.45;56.54
5703;BME280;2876;51.738;10.050;2022-08-03T07:08:47;99385.59;;;25.09;55.94
5703;BME280;2876;51.738;10.050;2022-08-03T07:14:55;99390.84;;;25.48;53.28
5703;BME280;2876;51.738;10.050;2022-08-03T07:21:02;99395.78;;;25.89;50.85
5703;BME280;2876;51.738;10.050;2022-08-03T07:27:05;99395.44;;;26.56;49.23
5703;BME280;2876;51.738;10.050;2022-08-03T07:33:07;99393.63;;;26.51;49.58
5703;BME280;2876;51.738;10.050;2022-08-03T07:39:09;99393.63;;;27.06;48.52
5703;BME280;2876;51.738;10.050;2022-08-03T07:45:18;99404.13;;;27.46;47.98
5703;BME280;2876;51.738;10.050;2022-08-03T07:51:22;99404.44;;;28.17;45.57
5703;BME280;2876;51.738;10.050;2022-08-03T07:57:24;99403.88;;;28.60;44.48
5703;BME280;2876;51.738;10.050;2022-08-03T08:03:26;99395.06;;;28.89;45.28
5703;BME280;2876;51.738;10.050;2022-08-03T08:09:42;99387.69;;;29.15;43.01
5703;BME280;2876;51.738;10.050;2022-08-03T08:15:44;99391.34;;;29.50;42.21
5703;BME280;2876;51.738;10.050;2022-08-03T08:21:47;99389.75;;;29.67;41.82
5703;BME280;2876;51.738;10.050;2022-08-03T08:28:03;99385.28;;;30.52;42.67
5703;BME280;2876;51.738;10.050;2022-08-03T08:34:25;99378.84;;;30.69;41.24
5703;BME280;2876;51.738;10.050;2022-08-03T08:40:27;99375.88;;;30.83;37.65
5703;BME280;2876;51.738;10.050;2022-08-03T08:46:32;99370.81;;;30.85;37.23
5703;BME280;2876;51.738;10.050;2022-08-03T08:52:34;99368.50;;;30.49;36.82
5703;BME280;2876;51.738;10.050;2022-08-03T08:58:37;99360.47;;;30.56;37.86
5703;BME280;2876;51.738;10.050;2022-08-03T09:04:43;99367.19;;;30.93;36.43
5703;BME280;2876;51.738;10.050;2022-08-03T09:10:46;99356.84;;;30.73;35.15
5703;BME280;2876;51.738;10.050;2022-08-03T09:17:01;99353.69;;;30.83;34.00
5703;BME280;2876;51.738;10.050;2022-08-03T09:23:08;99353.75;;;31.04;34.75
5703;BME280;2876;51.738;10.050;2022-08-03T09:29:32;99347.31;;;31.83;32.68
5703;BME280;2876;51.738;10.050;2022-08-03T09:35:46;99349.28;;;31.41;32.35
5703;BME280;2876;51.738;10.050;2022-08-03T09:42:08;99343.44;;;31.13;33.04
5703;BME280;2876;51.738;10.050;2022-08-03T09:48:30;99350.16;;;31.75;33.21
5703;BME280;2876;51.738;10.050;2022-08-03T09:54:35;99346.47;;;32.04;33.57
5703;BME280;2876;51.738;10.050;2022-08-03T10:01:01;99343.28;;;32.84;31.51
5703;BME280;2876;51.738;10.050;2022-08-03T10:07:08;99337.03;;;32.99;31.65
5703;BME280;2876;51.738;10.050;2022-08-03T10:13:13;99340.44;;;33.45;30.85
5703;BME280;2876;51.738;10.050;2022-08-03T10:19:15;99337.72;;;34.17;29.31
5703;BME280;2876;51.738;10.050;2022-08-03T10:25:18;99321.09;;;34.05;30.07
5703;BME280;2876;51.738;10.050;2022-08-03T10:31:21;99322.28;;;34.36;29.65
5703;BME280;2876;51.738;10.050;2022-08-03T10:37:29;99305.44;;;34.95;28.75
5703;BME280;2876;51.738;10.050;2022-08-03T10:43:49;99311.88;;;34.64;27.89
5703;BME280;2876;51.738;10.050;2022-08-03T10:49:51;99304.78;;;34.51;29.06
5703;BME280;2876;51.738;10.050;2022-08-03T10:55:54;99300.16;;;34.43;29.19
5703;BME280;2876;51.738;10.050;2022-08-03T11:02:18;99292.34;;;35.15;27.95
5703;BME280;2876;51.738;10.050;2022-08-03T11:08:30;99303.47;;;35.70;27.47
5703;BME280;2876;51.738;10.050;2022-08-03T11:14:46;99295.16;;;36.58;26.36
5703;BME280;2876;51.738;10.050;2022-08-03T11:20:59;99294.75;;;35.71;26.67
5703;BME280;2876;51.738;10.050;2022-08-03T11:33:30;99277.69;;;36.42;25.83
5703;BME280;2876;51.738;10.050;2022-08-03T11:39:43;99275.19;;;36.86;26.24
5703;BME280;2876;51.738;10.050;2022-08-03T11:46:18;99275.91;;;37.36;26.01
5703;BME280;2876;51.738;10.050;2022-08-03T11:52:37;99282.53;;;37.85;25.09
5703;BME280;2876;51.738;10.050;2022-08-03T11:58:48;99284.50;;;37.20;24.88
5703;BME280;2876;51.738;10.050;2022-08-03T12:05:10;99270.00;;;37.41;24.92
5703;BME280;2876;51.738;10.050;2022-08-03T12:11:14;99281.09;;;37.68;24.47
5703;BME280;2876;51.738;10.050;2022-08-03T12:17:17;99267.72;;;38.25;24.33
5703;BME280;2876;51.738;10.050;2022-08-03T12:23:19;99272.34;;;38.10;23.70
5703;BME280;2876;51.738;10.050;2022-08-03T12:29:22;99263.16;;;37.08;25.31
5703;BME280;2876;51.738;10.050;2022-08-03T12:35:26;99265.72;;;37.51;24.38
5703;BME280;2876;51.738;10.050;2022-08-03T12:41:37;99261.63;;;39.26;22.55
5703;BME280;2876;51.738;10.050;2022-08-03T12:48:09;99260.69;;;40.45;22.24
5703;BME280;2876;51.738;10.050;2022-08-03T12:54:23;99250.59;;;40.08;21.36
5703;BME280;2876;51.738;10.050;2022-08-03T13:00:27;99246.56;;;38.86;23.57
5703;BME280;2876;51.738;10.050;2022-08-03T13:06:32;99250.38;;;39.22;22.73
5703;BME280;2876;51.738;10.050;2022-08-03T13:12:49;99248.59;;;40.98;21.58
5703;BME280;2876;51.738;10.050;2022-08-03T13:18:51;99240.56;;;41.84;20.92
5703;BME280;2876;51.738;10.050;2022-08-03T13:24:56;99250.81;;;43.67;19.64
5703;BME280;2876;51.738;10.050;2022-08-03T13:31:01;99243.84;;;41.68;20.73
5703;BME280;2876;51.738;10.050;2022-08-03T13:37:04;99237.78;;;40.36;22.26
5703;BME280;2876;51.738;10.050;2022-08-03T13:43:10;99236.78;;;39.35;22.87
5703;BME280;2876;51.738;10.050;2022-08-03T13:49:13;99232.06;;;38.77;23.53
5703;BME280;2876;51.738;10.050;2022-08-03T13:55:15;99219.75;;;38.37;24.59
5703;BME280;2876;51.738;10.050;2022-08-03T14:01:17;99202.66;;;38.05;24.04
5703;BME280;2876;51.738;10.050;2022-08-03T14:07:40;99201.63;;;37.83;24.05
5703;BME280;2876;51.738;10.050;2022-08-03T14:13:42;99203.50;;;38.64;24.43
5703;BME280;2876;51.738;10.050;2022-08-03T14:19:44;99200.84;;;40.16;22.65
5703;BME280;2876;51.738;10.050;2022-08-03T14:25:54;99219.34;;;42.66;19.79
5703;BME280;2876;51.738;10.050;2022-08-03T14:31:56;99209.44;;;41.98;21.22
5703;BME280;2876;51.738;10.050;2022-08-03T14:38:13;99199.19;;;41.63;20.31
5703;BME280;2876;51.738;10.050;2022-08-03T14:44:15;99196.72;;;41.72;20.30
5703;BME280;2876;51.738;10.050;2022-08-03T14:50:17;99201.88;;;43.43;19.28
5703;BME280;2876;51.738;10.050;2022-08-03T14:56:39;99200.16;;;45.13;17.82
5703;BME280;2876;51.738;10.050;2022-08-03T15:02:42;99188.91;;;41.28;20.83
5703;BME280;2876;51.738;10.050;2022-08-03T15:08:44;99175.91;;;39.71;22.88
5703;BME280;2876;51.738;10.050;2022-08-03T15:15:07;99162.56;;;37.94;24.36
5703;BME280;2876;51.738;10.050;2022-08-03T15:21:09;99156.16;;;37.19;25.67
5703;BME280;2876;51.738;10.050;2022-08-03T15:27:31;99152.50;;;37.93;25.40
5703;BME280;2876;51.738;10.050;2022-08-03T15:33:33;99154.25;;;39.90;22.10
5703;BME280;2876;51.738;10.050;2022-08-03T15:39:36;99154.66;;;41.40;21.27
5703;BME280;2876;51.738;10.050;2022-08-03T15:45:58;99158.50;;;41.64;22.96
5703;BME280;2876;51.738;10.050;2022-08-03T15:52:20;99147.78;;;40.36;23.16
5703;BME280;2876;51.738;10.050;2022-08-03T15:58:22;99144.63;;;41.91;21.72
5703;BME280;2876;51.738;10.050;2022-08-03T16:04:44;99143.81;;;43.38;20.00
5703;BME280;2876;51.738;10.050;2022-08-03T16:10:47;99144.13;;;42.03;20.92
5703;BME280;2876;51.738;10.050;2022-08-03T16:16:51;99145.38;;;42.44;20.66
5703;BME280;2876;51.738;10.050;2022-08-03T16:22:54;99152.53;;;44.88;19.45
5703;BME280;2876;51.738;10.050;2022-08-03T16:28:56;99137.16;;;41.70;20.97
5703;BME280;2876;51.738;10.050;2022-08-03T16:34:59;99130.13;;;39.99;24.00
5703;BME280;2876;51.738;10.050;2022-08-03T16:41:02;99135.19;;;40.87;21.92
5703;BME280;2876;51.738;10.050;2022-08-03T16:47:05;99133.16;;;40.91;24.25
5703;BME280;2876;51.738;10.050;2022-08-03T16:53:10;99124.13;;;40.19;23.51
5703;BME280;2876;51.738;10.050;2022-08-03T16:59:18;99127.38;;;38.62;26.64
5703;BME280;2876;51.738;10.050;2022-08-03T17:05:36;99123.47;;;37.67;28.03
5703;BME280;2876;51.738;10.050;2022-08-03T17:11:49;99125.97;;;37.76;27.85
5703;BME280;2876;51.738;10.050;2022-08-03T17:18:04;99130.81;;;37.04;29.92
5703;BME280;2876;51.738;10.050;2022-08-03T17:24:23;99125.13;;;36.67;31.51
5703;BME280;2876;51.738;10.050;2022-08-03T17:30:27;99127.03;;;36.90;29.80
5703;BME280;2876;51.738;10.050;2022-08-03T17:36:49;99109.44;;;35.14;33.75
5703;BME280;2876;51.738;10.050;2022-08-03T17:43:15;99130.31;;;35.43;32.94
5703;BME280;2876;51.738;10.050;2022-08-03T17:49:38;99138.28;;;36.93;29.72
5703;BME280;2876;51.738;10.050;2022-08-03T18:09:06;99132.19;;;34.07;33.38
5703;BME280;2876;51.738;10.050;2022-08-03T18:15:37;99136.53;;;34.94;32.71
5703;BME280;2876;51.738;10.050;2022-08-03T18:21:42;99140.59;;;33.95;34.88
5703;BME280;2876;51.738;10.050;2022-08-03T18:28:05;99131.97;;;32.68;36.99
5703;BME280;2876;51.738;10.050;2022-08-03T18:34:08;99130.59;;;31.52;38.58
5703;BME280;2876;51.738;10.050;2022-08-03T18:40:30;99127.47;;;31.66;37.96
5703;BME280;2876;51.738;10.050;2022-08-03T18:59:52;99132.84;;;28.92;42.92
5703;BME280;2876;51.738;10.050;2022-08-03T19:06:04;99127.81;;;28.60;43.97
5703;BME280;2876;51.738;10.050;2022-08-03T19:18:36;99138.84;;;27.85;44.61
5703;BME280;2876;51.738;10.050;2022-08-03T19:24:42;99140.75;;;27.76;45.35
5703;BME280;2876;51.738;10.050;2022-08-03T19:30:47;99143.00;;;27.51;45.78
5703;BME280;2876;51.738;10.050;2022-08-03T19:37:12;99139.69;;;27.32;46.65
5703;BME280;2876;51.738;10.050;2022-08-03T19:43:34;99135.81;;;27.11;47.45
5703;BME280;2876;51.738;10.050;2022-08-03T19:49:56;99137.59;;;26.93;47.86
5703;BME280;2876;51.738;10.050;2022-08-03T19:56:12;99147.59;;;26.66;49.17
5703;BME280;2876;51.738;10.050;2022-08-03T20:02:18;99145.88;;;26.43;50.46
5703;BME280;2876;51.738;10.050;2022-08-03T20:08:28;99142.34;;;26.15;50.45
5703;BME280;2876;51.738;10.050;2022-08-03T20:14:31;99148.28;;;25.94;50.63
5703;BME280;2876;51.738;10.050;2022-08-03T20:20:35;99155.50;;;25.90;50.80
5703;BME280;2876;51.738;10.050;2022-08-03T20:26:38;99155.41;;;25.95;51.44
5703;BME280;2876;51.738;10.050;2022-08-03T20:32:43;99163.25;;;25.55;53.11
5703;BME280;2876;51.738;10.050;2022-08-03T20:38:46;99160.91;;;25.35;53.21
5703;BME280;2876;51.738;10.050;2022-08-03T20:44:49;99164.59;;;25.06;55.09
5703;BME280;2876;51.738;10.050;2022-08-03T20:51:07;99163.91;;;24.82;55.38
5703;BME280;2876;51.738;10.050;2022-08-03T20:57:21;99166.88;;;24.67;56.59
5703;BME280;2876;51.738;10.050;2022-08-03T21:03:23;99161.69;;;24.46;57.08
5703;BME280;2876;51.738;10.050;2022-08-03T21:09:55;99162.06;;;24.40;57.74
5703;BME280;2876;51.738;10.050;2022-08-03T21:15:59;99165.81;;;24.20;58.41
5703;BME280;2876;51.738;10.050;2022-08-03T21:22:16;99169.91;;;24.22;58.39
5703;BME280;2876;51.738;10.050;2022-08-03T21:28:20;99166.63;;;24.20;58.72
5703;BME280;2876;51.738;10.050;2022-08-03T21:34:28;99165.38;;;24.13;59.39
5703;BME280;2876;51.738;10.050;2022-08-03T21:40:30;99168.28;;;23.97;60.41
5703;BME280;2876;51.738;10.050;2022-08-03T21:46:39;99170.91;;;23.84;60.39
5703;BME280;2876;51.738;10.050;2022-08-03T21:52:45;99169.97;;;23.69;61.04
5703;BME280;2876;51.738;10.050;2022-08-03T21:58:58;99169.91;;;23.74;61.68
5703;BME280;2876;51.738;10.050;2022-08-03T22:05:01;99171.22;;;23.53;61.85
5703;BME280;2876;51.738;10.050;2022-08-03T22:11:08;99171.38;;;23.33;61.88
5703;BME280;2876;51.738;10.050;2022-08-03T22:17:11;99162.69;;;23.25;63.39
5703;BME280;2876;51.738;10.050;2022-08-03T22:23:48;99165.91;;;23.03;63.79
5703;BME280;2876;51.738;10.050;2022-08-03T22:29:52;99171.28;;;23.14;63.38
5703;BME280;2876;51.738;10.050;2022-08-03T22:35:57;99168.59;;;23.09;63.63
5703;BME280;2876;51.738;10.050;2022-08-03T22:41:59;99174.16;;;22.98;63.95
5703;BME280;2876;51.738;10.050;2022-08-03T22:48:07;99179.09;;;22.91;64.33
5703;BME280;2876;51.738;10.050;2022-08-03T22:54:13;99177.22;;;22.82;65.02
5703;BME280;2876;51.738;10.050;2022-08-03T23:00:15;99179.34;;;22.45;65.61
5703;BME280;2876;51.738;10.050;2022-08-03T23:06:18;99173.06;;;22.45;65.17
5703;BME280;2876;51.738;10.050;2022-08-03T23:12:22;99175.88;;;22.24;66.64
5703;BME280;2876;51.738;10.050;2022-08-03T23:18:28;99174.31;;;21.98;67.56
5703;BME280;2876;51.738;10.050;2022-08-03T23:24:36;99171.34;;;21.94;67.30
5703;BME280;2876;51.738;10.050;2022-08-03T23:30:41;99176.00;;;21.94;67.83
5703;BME280;2876;51.738;10.050;2022-08-03T23:36:48;99175.16;;;21.98;67.61
5703;BME280;2876;51.738;10.050;2022-08-03T23:42:51;99178.13;;;22.17;67.36
5703;BME280;2876;51.738;10.050;2022-08-03T23:48:53;99170.75;;;22.13;67.84
